Time;durP1;ratioP1;P1;durP2;ratioP2;P2;SDS_P1;SDS_P2;PMS_P1;PMS_P2;Temp;Humidity;BMP_temperature;BMP_pressure;BME280_temperature;BME280_humidity;BME280_pressure;Samples;Min_cycle;Max_cycle;Signal;HPM_P1;HPM_P2
2021/11/21 00:00:39;;;;;;;15.05;8.950001;;;;;;;2.68;85.79395;95189.75;;;;
2021/11/21 00:01:42;;;;;;;15.05;8.950001;;;;;;;2.68;85.79395;95189.75;;;;
2021/11/21 00:02:42;;;;;;;15.05;8.950001;;;;;;;2.68;85.79395;95189.75;;;;
2021/11/21 00:03:43;;;;;;;15.05;8.950001;;;;;;;2.68;85.79395;95189.75;;;;
2021/11/21 00:04:44;;;;;;;15.05;8.950001;;;;;;;2.68;85.79395;95189.75;;;;
2021/11/21 00:05:44;;;;;;;15.05;8.950001;;;;;;;2.68;85.79395;95189.75;;;;
2021/11/21 00:06:45;;;;;;;15.05;8.950001;;;;;;;2.68;85.79395;95189.75;;;;
2021/11/21 00:07:45;;;;;;;15.05;8.950001;;;;;;;2.68;85.79395;95189.75;;;;
2021/11/21 00:08:46;;;;;;;15.05;8.950001;;;;;;;2.68;85.79395;95189.75;;;;
2021/11/21 00:09:49;;;;;;;15.05;8.950001;;;;;;;2.68;85.79395;95189.75;;;;
2021/11/21 00:10:50;;;;;;;15.05;8.950001;;;;;;;2.68;85.79395;95189.75;;;;
2021/11/21 00:11:51;;;;;;;25.75;8.849999;;;;;;;2.59;85.80859;95173.56;;;;
2021/11/21 00:12:52;;;;;;;25.75;8.849999;;;;;;;2.59;85.80859;95173.56;;;;
2021/11/21 00:13:52;;;;;;;25.75;8.849999;;;;;;;2.59;85.80859;95173.56;;;;
2021/11/21 00:14:53;;;;;;;25.75;8.849999;;;;;;;2.59;85.80859;95173.56;;;;
2021/11/21 00:15:53;;;;;;;25.75;8.849999;;;;;;;2.59;85.80859;95173.56;;;;
2021/11/21 00:16:57;;;;;;;25.75;8.849999;;;;;;;2.59;85.80859;95173.56;;;;
2021/11/21 00:17:57;;;;;;;25.75;8.849999;;;;;;;2.59;85.80859;95173.56;;;;
2021/11/21 00:18:58;;;;;;;25.75;8.849999;;;;;;;2.59;85.80859;95173.56;;;;
2021/11/21 00:19:59;;;;;;;25.75;8.849999;;;;;;;2.59;85.80859;95173.56;;;;
2021/11/21 00:20:59;;;;;;;25.75;8.849999;;;;;;;2.59;85.80859;95173.56;;;;
2021/11/21 00:22:00;;;;;;;24;8.449999;;;;;;;2.58;85.83594;95167.1;;;;
2021/11/21 00:23:01;;;;;;;24;8.449999;;;;;;;2.58;85.83594;95167.1;;;;
2021/11/21 00:24:01;;;;;;;24;8.449999;;;;;;;2.58;85.83594;95167.1;;;;
2021/11/21 00:25:02;;;;;;;24;8.449999;;;;;;;2.58;85.83594;95167.1;;;;
2021/11/21 00:26:04;;;;;;;24;8.449999;;;;;;;2.58;85.83594;95167.1;;;;
2021/11/21 00:27:05;;;;;;;24;8.449999;;;;;;;2.58;85.83594;95167.1;;;;
2021/11/21 00:28:05;;;;;;;24;8.449999;;;;;;;2.58;85.83594;95167.1;;;;
2021/11/21 00:29:06;;;;;;;24;8.449999;;;;;;;2.58;85.83594;95167.1;;;;
2021/11/21 00:30:07;;;;;;;24;8.449999;;;;;;;2.58;85.83594;95167.1;;;;
2021/11/21 00:31:08;;;;;;;24;8.449999;;;;;;;2.58;85.83594;95167.1;;;;
2021/11/21 00:32:09;;;;;;;24;8.449999;;;;;;;2.58;85.83594;95167.1;;;;
2021/11/21 00:33:10;;;;;;;14.1;8.199999;;;;;;;2.56;85.63281;95152.22;;;;
2021/11/21 00:34:10;;;;;;;14.1;8.199999;;;;;;;2.56;85.63281;95152.22;;;;
2021/11/21 00:35:11;;;;;;;14.1;8.199999;;;;;;;2.56;85.63281;95152.22;;;;
2021/11/21 00:36:12;;;;;;;14.1;8.199999;;;;;;;2.56;85.63281;95152.22;;;;
2021/11/21 00:37:13;;;;;;;14.1;8.199999;;;;;;;2.56;85.63281;95152.22;;;;
2021/11/21 00:38:13;;;;;;;14.1;8.199999;;;;;;;2.56;85.63281;95152.22;;;;
2021/11/21 00:39:14;;;;;;;14.1;8.199999;;;;;;;2.56;85.63281;95152.22;;;;
2021/11/21 00:40:14;;;;;;;14.1;8.199999;;;;;;;2.56;85.63281;95152.22;;;;
2021/11/21 00:41:15;;;;;;;14.1;8.199999;;;;;;;2.56;85.63281;95152.22;;;;
2021/11/21 00:42:16;;;;;;;14.1;8.199999;;;;;;;2.56;85.63281;95152.22;;;;
2021/11/21 00:43:17;;;;;;;16.55;8.25;;;;;;;2.52;85.54199;95136.7;;;;
2021/11/21 00:44:18;;;;;;;16.55;8.25;;;;;;;2.52;85.54199;95136.7;;;;
2021/11/21 00:45:18;;;;;;;16.55;8.25;;;;;;;2.52;85.54199;95136.7;;;;
2021/11/21 00:46:19;;;;;;;16.55;8.25;;;;;;;2.52;85.54199;95136.7;;;;
2021/11/21 00:47:20;;;;;;;16.55;8.25;;;;;;;2.52;85.54199;95136.7;;;;
2021/11/21 00:48:21;;;;;;;16.55;8.25;;;;;;;2.52;85.54199;95136.7;;;;
2021/11/21 00:49:22;;;;;;;16.55;8.25;;;;;;;2.52;85.54199;95136.7;;;;
2021/11/21 00:50:26;;;;;;;16.55;8.25;;;;;;;2.52;85.54199;95136.7;;;;
2021/11/21 00:51:27;;;;;;;16.55;8.25;;;;;;;2.52;85.54199;95136.7;;;;
2021/11/21 00:52:30;;;;;;;16.55;8.25;;;;;;;2.52;85.54199;95136.7;;;;
2021/11/21 00:53:31;;;;;;;16.55;8.25;;;;;;;2.52;85.54199;95136.7;;;;
2021/11/21 00:54:41;;;;;;;14;7.45;;;;;;;2.43;85.41895;95115.73;;;;
2021/11/21 00:55:45;;;;;;;14;7.45;;;;;;;2.43;85.41895;95115.73;;;;
2021/11/21 00:56:46;;;;;;;14;7.45;;;;;;;2.43;85.41895;95115.73;;;;
2021/11/21 00:57:47;;;;;;;14;7.45;;;;;;;2.43;85.41895;95115.73;;;;
2021/11/21 00:58:47;;;;;;;14;7.45;;;;;;;2.43;85.41895;95115.73;;;;
2021/11/21 00:59:48;;;;;;;14;7.45;;;;;;;2.43;85.41895;95115.73;;;;
2021/11/21 01:00:48;;;;;;;14;7.45;;;;;;;2.43;85.41895;95115.73;;;;
2021/11/21 01:01:50;;;;;;;14;7.45;;;;;;;2.43;85.41895;95115.73;;;;
2021/11/21 01:02:52;;;;;;;14;7.45;;;;;;;2.43;85.41895;95115.73;;;;
2021/11/21 01:03:56;;;;;;;14;7.45;;;;;;;2.43;85.41895;95115.73;;;;
2021/11/21 01:04:56;;;;;;;10.4;7;;;;;;;2.32;85.4502;95104.24;;;;
2021/11/21 01:06:00;;;;;;;10.4;7;;;;;;;2.32;85.4502;95104.24;;;;
2021/11/21 01:07:01;;;;;;;10.4;7;;;;;;;2.32;85.4502;95104.24;;;;
2021/11/21 01:08:03;;;;;;;10.4;7;;;;;;;2.32;85.4502;95104.24;;;;
2021/11/21 01:09:04;;;;;;;10.4;7;;;;;;;2.32;85.4502;95104.24;;;;
2021/11/21 01:10:05;;;;;;;10.4;7;;;;;;;2.32;85.4502;95104.24;;;;
2021/11/21 01:11:08;;;;;;;10.4;7;;;;;;;2.32;85.4502;95104.24;;;;
2021/11/21 01:12:09;;;;;;;10.4;7;;;;;;;2.32;85.4502;95104.24;;;;
2021/11/21 01:13:10;;;;;;;10.4;7;;;;;;;2.32;85.4502;95104.24;;;;
2021/11/21 01:14:11;;;;;;;10.4;7;;;;;;;2.32;85.4502;95104.24;;;;
2021/11/21 01:15:12;;;;;;;9.75;6.900001;;;;;;;2.22;85.4502;95100.13;;;;
2021/11/21 01:16:15;;;;;;;9.75;6.900001;;;;;;;2.22;85.4502;95100.13;;;;
2021/11/21 01:17:15;;;;;;;9.75;6.900001;;;;;;;2.22;85.4502;95100.13;;;;
2021/11/21 01:18:16;;;;;;;9.75;6.900001;;;;;;;2.22;85.4502;95100.13;;;;
2021/11/21 01:19:17;;;;;;;9.75;6.900001;;;;;;;2.22;85.4502;95100.13;;;;
2021/11/21 01:20:18;;;;;;;9.75;6.900001;;;;;;;2.22;85.4502;95100.13;;;;
2021/11/21 01:21:20;;;;;;;9.75;6.900001;;;;;;;2.22;85.4502;95100.13;;;;
2021/11/21 01:22:21;;;;;;;9.75;6.900001;;;;;;;2.22;85.4502;95100.13;;;;
2021/11/21 01:23:22;;;;;;;9.75;6.900001;;;;;;;2.22;85.4502;95100.13;;;;
2021/11/21 01:24:22;;;;;;;9.75;6.900001;;;;;;;2.22;85.4502;95100.13;;;;
2021/11/21 01:25:23;;;;;;;9.75;6.900001;;;;;;;2.22;85.4502;95100.13;;;;
2021/11/21 01:26:24;;;;;;;13.95;6.6;;;;;;;2.07;85.41211;95080.63;;;;
2021/11/21 01:27:25;;;;;;;13.95;6.6;;;;;;;2.07;85.41211;95080.63;;;;
2021/11/21 01:28:26;;;;;;;13.95;6.6;;;;;;;2.07;85.41211;95080.63;;;;
2021/11/21 01:29:27;;;;;;;13.95;6.6;;;;;;;2.07;85.41211;95080.63;;;;
2021/11/21 01:30:27;;;;;;;13.95;6.6;;;;;;;2.07;85.41211;95080.63;;;;
2021/11/21 01:31:30;;;;;;;13.95;6.6;;;;;;;2.07;85.41211;95080.63;;;;
2021/11/21 01:32:30;;;;;;;13.95;6.6;;;;;;;2.07;85.41211;95080.63;;;;
2021/11/21 01:33:31;;;;;;;13.95;6.6;;;;;;;2.07;85.41211;95080.63;;;;
2021/11/21 01:34:31;;;;;;;13.95;6.6;;;;;;;2.07;85.41211;95080.63;;;;
2021/11/21 01:35:32;;;;;;;13.95;6.6;;;;;;;2.07;85.41211;95080.63;;;;
2021/11/21 01:36:33;;;;;;;7.05;5.749999;;;;;;;1.91;85.43066;95060.49;;;;
2021/11/21 01:37:34;;;;;;;7.05;5.749999;;;;;;;1.91;85.43066;95060.49;;;;
2021/11/21 01:38:35;;;;;;;7.05;5.749999;;;;;;;1.91;85.43066;95060.49;;;;
2021/11/21 01:39:36;;;;;;;7.05;5.749999;;;;;;;1.91;85.43066;95060.49;;;;
2021/11/21 01:40:36;;;;;;;7.05;5.749999;;;;;;;1.91;85.43066;95060.49;;;;
2021/11/21 01:41:37;;;;;;;7.05;5.749999;;;;;;;1.91;85.43066;95060.49;;;;
2021/11/21 01:42:38;;;;;;;7.05;5.749999;;;;;;;1.91;85.43066;95060.49;;;;
2021/11/21 01:43:42;;;;;;;7.05;5.749999;;;;;;;1.91;85.43066;95060.49;;;;
2021/11/21 01:44:43;;;;;;;7.05;5.749999;;;;;;;1.91;85.43066;95060.49;;;;
2021/11/21 01:45:44;;;;;;;7.05;5.749999;;;;;;;1.91;85.43066;95060.49;;;;
2021/11/21 01:46:45;;;;;;;7.05;5.749999;;;;;;;1.91;85.43066;95060.49;;;;
2021/11/21 01:47:46;;;;;;;7.7;6.15;;;;;;;1.65;85.59863;95054.47;;;;
2021/11/21 01:48:47;;;;;;;7.7;6.15;;;;;;;1.65;85.59863;95054.47;;;;
2021/11/21 01:49:47;;;;;;;7.7;6.15;;;;;;;1.65;85.59863;95054.47;;;;
2021/11/21 01:50:48;;;;;;;7.7;6.15;;;;;;;1.65;85.59863;95054.47;;;;
2021/11/21 01:51:49;;;;;;;7.7;6.15;;;;;;;1.65;85.59863;95054.47;;;;
2021/11/21 01:52:50;;;;;;;7.7;6.15;;;;;;;1.65;85.59863;95054.47;;;;
2021/11/21 01:53:51;;;;;;;7.7;6.15;;;;;;;1.65;85.59863;95054.47;;;;
2021/11/21 01:54:52;;;;;;;7.7;6.15;;;;;;;1.65;85.59863;95054.47;;;;
2021/11/21 01:55:52;;;;;;;7.7;6.15;;;;;;;1.65;85.59863;95054.47;;;;
2021/11/21 01:56:53;;;;;;;7.7;6.15;;;;;;;1.65;85.59863;95054.47;;;;
2021/11/21 01:57:53;;;;;;;14.1;6.300001;;;;;;;1.45;85.82031;95030.71;;;;
2021/11/21 01:58:55;;;;;;;14.1;6.300001;;;;;;;1.45;85.82031;95030.71;;;;
2021/11/21 01:59:59;;;;;;;14.1;6.300001;;;;;;;1.45;85.82031;95030.71;;;;
2021/11/21 02:01:00;;;;;;;14.1;6.300001;;;;;;;1.45;85.82031;95030.71;;;;
2021/11/21 02:02:01;;;;;;;14.1;6.300001;;;;;;;1.45;85.82031;95030.71;;;;
2021/11/21 02:03:02;;;;;;;14.1;6.300001;;;;;;;1.45;85.82031;95030.71;;;;
2021/11/21 02:04:02;;;;;;;14.1;6.300001;;;;;;;1.45;85.82031;95030.71;;;;
2021/11/21 02:05:04;;;;;;;14.1;6.300001;;;;;;;1.45;85.82031;95030.71;;;;
2021/11/21 02:06:05;;;;;;;14.1;6.300001;;;;;;;1.45;85.82031;95030.71;;;;
2021/11/21 02:07:06;;;;;;;14.1;6.300001;;;;;;;1.45;85.82031;95030.71;;;;
2021/11/21 02:08:07;;;;;;;14.1;6.300001;;;;;;;1.45;85.82031;95030.71;;;;
2021/11/21 02:09:08;;;;;;;28;7.500001;;;;;;;1.39;85.99707;95015.48;;;;
2021/11/21 02:10:09;;;;;;;28;7.500001;;;;;;;1.39;85.99707;95015.48;;;;
2021/11/21 02:11:12;;;;;;;28;7.500001;;;;;;;1.39;85.99707;95015.48;;;;
2021/11/21 02:12:13;;;;;;;28;7.500001;;;;;;;1.39;85.99707;95015.48;;;;
2021/11/21 02:13:13;;;;;;;28;7.500001;;;;;;;1.39;85.99707;95015.48;;;;
2021/11/21 02:14:14;;;;;;;28;7.500001;;;;;;;1.39;85.99707;95015.48;;;;
2021/11/21 02:15:14;;;;;;;28;7.500001;;;;;;;1.39;85.99707;95015.48;;;;
2021/11/21 02:16:17;;;;;;;28;7.500001;;;;;;;1.39;85.99707;95015.48;;;;
2021/11/21 02:17:23;;;;;;;28;7.500001;;;;;;;1.39;85.99707;95015.48;;;;
2021/11/21 02:18:25;;;;;;;28;7.500001;;;;;;;1.39;85.99707;95015.48;;;;
2021/11/21 02:19:25;;;;;;;18.4;7.05;;;;;;;1.41;85.93652;95010.39;;;;
2021/11/21 02:20:26;;;;;;;18.4;7.05;;;;;;;1.41;85.93652;95010.39;;;;
2021/11/21 02:21:43;;;;;;;18.4;7.05;;;;;;;1.41;85.93652;95010.39;;;;
2021/11/21 02:22:43;;;;;;;18.4;7.05;;;;;;;1.41;85.93652;95010.39;;;;
2021/11/21 02:23:44;;;;;;;18.4;7.05;;;;;;;1.41;85.93652;95010.39;;;;
2021/11/21 02:24:47;;;;;;;18.4;7.05;;;;;;;1.41;85.93652;95010.39;;;;
2021/11/21 02:25:47;;;;;;;18.4;7.05;;;;;;;1.41;85.93652;95010.39;;;;
2021/11/21 02:26:48;;;;;;;18.4;7.05;;;;;;;1.41;85.93652;95010.39;;;;
2021/11/21 02:27:49;;;;;;;18.4;7.05;;;;;;;1.41;85.93652;95010.39;;;;
2021/11/21 02:28:49;;;;;;;18.4;7.05;;;;;;;1.41;85.93652;95010.39;;;;
2021/11/21 02:29:51;;;;;;;26.2;6.7;;;;;;;1.43;85.79395;94995.57;;;;
2021/11/21 02:30:51;;;;;;;26.2;6.7;;;;;;;1.43;85.79395;94995.57;;;;
2021/11/21 02:31:52;;;;;;;26.2;6.7;;;;;;;1.43;85.79395;94995.57;;;;
2021/11/21 02:32:52;;;;;;;26.2;6.7;;;;;;;1.43;85.79395;94995.57;;;;
2021/11/21 02:33:54;;;;;;;26.2;6.7;;;;;;;1.43;85.79395;94995.57;;;;
2021/11/21 02:34:55;;;;;;;26.2;6.7;;;;;;;1.43;85.79395;94995.57;;;;
2021/11/21 02:35:56;;;;;;;26.2;6.7;;;;;;;1.43;85.79395;94995.57;;;;
2021/11/21 02:36:59;;;;;;;26.2;6.7;;;;;;;1.43;85.79395;94995.57;;;;
2021/11/21 02:38:00;;;;;;;26.2;6.7;;;;;;;1.43;85.79395;94995.57;;;;
2021/11/21 02:39:00;;;;;;;26.2;6.7;;;;;;;1.43;85.79395;94995.57;;;;
2021/11/21 02:40:01;;;;;;;26.2;6.7;;;;;;;1.43;85.79395;94995.57;;;;
2021/11/21 02:41:02;;;;;;;12.9;6.05;;;;;;;1.36;85.67676;94979.55;;;;
2021/11/21 02:42:07;;;;;;;12.9;6.05;;;;;;;1.36;85.67676;94979.55;;;;
2021/11/21 02:43:08;;;;;;;12.9;6.05;;;;;;;1.36;85.67676;94979.55;;;;
2021/11/21 02:44:09;;;;;;;12.9;6.05;;;;;;;1.36;85.67676;94979.55;;;;
2021/11/21 02:45:10;;;;;;;12.9;6.05;;;;;;;1.36;85.67676;94979.55;;;;
2021/11/21 02:46:12;;;;;;;12.9;6.05;;;;;;;1.36;85.67676;94979.55;;;;
2021/11/21 02:47:15;;;;;;;12.9;6.05;;;;;;;1.36;85.67676;94979.55;;;;
2021/11/21 02:48:15;;;;;;;12.9;6.05;;;;;;;1.36;85.67676;94979.55;;;;
2021/11/21 02:49:16;;;;;;;12.9;6.05;;;;;;;1.36;85.67676;94979.55;;;;
2021/11/21 02:50:17;;;;;;;12.9;6.05;;;;;;;1.36;85.67676;94979.55;;;;
2021/11/21 02:51:22;;;;;;;8.05;5.55;;;;;;;1.2;85.58203;94956.27;;;;
2021/11/21 02:52:22;;;;;;;8.05;5.55;;;;;;;1.2;85.58203;94956.27;;;;
2021/11/21 02:53:23;;;;;;;8.05;5.55;;;;;;;1.2;85.58203;94956.27;;;;
2021/11/21 02:54:26;;;;;;;8.05;5.55;;;;;;;1.2;85.58203;94956.27;;;;
2021/11/21 02:55:27;;;;;;;8.05;5.55;;;;;;;1.2;85.58203;94956.27;;;;
2021/11/21 02:56:30;;;;;;;8.05;5.55;;;;;;;1.2;85.58203;94956.27;;;;
2021/11/21 02:57:30;;;;;;;8.05;5.55;;;;;;;1.2;85.58203;94956.27;;;;
2021/11/21 02:58:32;;;;;;;8.05;5.55;;;;;;;1.2;85.58203;94956.27;;;;
2021/11/21 02:59:34;;;;;;;8.05;5.55;;;;;;;1.2;85.58203;94956.27;;;;
2021/11/21 03:00:34;;;;;;;8.05;5.55;;;;;;;1.2;85.58203;94956.27;;;;
2021/11/21 03:01:37;;;;;;;7.850001;5.749999;;;;;;;0.98;85.69336;94936.86;;;;
2021/11/21 03:02:38;;;;;;;7.850001;5.749999;;;;;;;0.98;85.69336;94936.86;;;;
2021/11/21 03:03:39;;;;;;;7.850001;5.749999;;;;;;;0.98;85.69336;94936.86;;;;
2021/11/21 03:04:40;;;;;;;7.850001;5.749999;;;;;;;0.98;85.69336;94936.86;;;;
2021/11/21 03:05:40;;;;;;;7.850001;5.749999;;;;;;;0.98;85.69336;94936.86;;;;
2021/11/21 03:06:42;;;;;;;7.850001;5.749999;;;;;;;0.98;85.69336;94936.86;;;;
2021/11/21 03:07:42;;;;;;;7.850001;5.749999;;;;;;;0.98;85.69336;94936.86;;;;
2021/11/21 03:08:43;;;;;;;7.850001;5.749999;;;;;;;0.98;85.69336;94936.86;;;;
2021/11/21 03:09:44;;;;;;;7.850001;5.749999;;;;;;;0.98;85.69336;94936.86;;;;
2021/11/21 03:10:47;;;;;;;7.850001;5.749999;;;;;;;0.98;85.69336;94936.86;;;;
2021/11/21 03:11:47;;;;;;;7.850001;5.749999;;;;;;;0.98;85.69336;94936.86;;;;
2021/11/21 03:12:53;;;;;;;9.25;6.55;;;;;;;0.89;86.05176;94931.74;;;;
2021/11/21 03:13:58;;;;;;;9.25;6.55;;;;;;;0.89;86.05176;94931.74;;;;
2021/11/21 03:15:01;;;;;;;9.25;6.55;;;;;;;0.89;86.05176;94931.74;;;;
2021/11/21 03:16:03;;;;;;;9.25;6.55;;;;;;;0.89;86.05176;94931.74;;;;
2021/11/21 03:17:04;;;;;;;9.25;6.55;;;;;;;0.89;86.05176;94931.74;;;;
2021/11/21 03:18:05;;;;;;;9.25;6.55;;;;;;;0.89;86.05176;94931.74;;;;
2021/11/21 03:19:06;;;;;;;9.25;6.55;;;;;;;0.89;86.05176;94931.74;;;;
2021/11/21 03:20:07;;;;;;;9.25;6.55;;;;;;;0.89;86.05176;94931.74;;;;
2021/11/21 03:21:08;;;;;;;9.25;6.55;;;;;;;0.89;86.05176;94931.74;;;;
2021/11/21 03:22:08;;;;;;;9.25;6.55;;;;;;;0.89;86.05176;94931.74;;;;
2021/11/21 03:23:10;;;;;;;14.5;7.050001;;;;;;;0.95;86.12695;94907.09;;;;
2021/11/21 03:24:10;;;;;;;14.5;7.050001;;;;;;;0.95;86.12695;94907.09;;;;
2021/11/21 03:25:11;;;;;;;14.5;7.050001;;;;;;;0.95;86.12695;94907.09;;;;
2021/11/21 03:26:13;;;;;;;14.5;7.050001;;;;;;;0.95;86.12695;94907.09;;;;
2021/11/21 03:27:14;;;;;;;14.5;7.050001;;;;;;;0.95;86.12695;94907.09;;;;
2021/11/21 03:28:16;;;;;;;14.5;7.050001;;;;;;;0.95;86.12695;94907.09;;;;
2021/11/21 03:29:17;;;;;;;14.5;7.050001;;;;;;;0.95;86.12695;94907.09;;;;
2021/11/21 03:30:17;;;;;;;14.5;7.050001;;;;;;;0.95;86.12695;94907.09;;;;
2021/11/21 03:31:21;;;;;;;14.5;7.050001;;;;;;;0.95;86.12695;94907.09;;;;
2021/11/21 03:32:22;;;;;;;14.5;7.050001;;;;;;;0.95;86.12695;94907.09;;;;
2021/11/21 03:33:22;;;;;;;14.5;7.050001;;;;;;;0.95;86.12695;94907.09;;;;
2021/11/21 03:34:23;;;;;;;62.2;7.9;;;;;;;1.04;86.0293;94896.67;;;;
2021/11/21 03:35:24;;;;;;;62.2;7.9;;;;;;;1.04;86.0293;94896.67;;;;
2021/11/21 03:36:25;;;;;;;62.2;7.9;;;;;;;1.04;86.0293;94896.67;;;;
2021/11/21 03:37:27;;;;;;;62.2;7.9;;;;;;;1.04;86.0293;94896.67;;;;
2021/11/21 03:38:28;;;;;;;62.2;7.9;;;;;;;1.04;86.0293;94896.67;;;;
2021/11/21 03:39:29;;;;;;;62.2;7.9;;;;;;;1.04;86.0293;94896.67;;;;
2021/11/21 03:40:29;;;;;;;62.2;7.9;;;;;;;1.04;86.0293;94896.67;;;;
2021/11/21 03:41:30;;;;;;;62.2;7.9;;;;;;;1.04;86.0293;94896.67;;;;
2021/11/21 03:42:31;;;;;;;62.2;7.9;;;;;;;1.04;86.0293;94896.67;;;;
2021/11/21 03:43:32;;;;;;;62.2;7.9;;;;;;;1.04;86.0293;94896.67;;;;
2021/11/21 03:44:32;;;;;;;51.59999;6.95;;;;;;;1.06;85.84766;94882.65;;;;
2021/11/21 03:45:33;;;;;;;51.59999;6.95;;;;;;;1.06;85.84766;94882.65;;;;
2021/11/21 03:46:34;;;;;;;51.59999;6.95;;;;;;;1.06;85.84766;94882.65;;;;
2021/11/21 03:47:36;;;;;;;51.59999;6.95;;;;;;;1.06;85.84766;94882.65;;;;
2021/11/21 03:48:36;;;;;;;51.59999;6.95;;;;;;;1.06;85.84766;94882.65;;;;
2021/11/21 03:49:37;;;;;;;51.59999;6.95;;;;;;;1.06;85.84766;94882.65;;;;
2021/11/21 03:50:38;;;;;;;51.59999;6.95;;;;;;;1.06;85.84766;94882.65;;;;
2021/11/21 03:51:39;;;;;;;51.59999;6.95;;;;;;;1.06;85.84766;94882.65;;;;
2021/11/21 03:52:39;;;;;;;51.59999;6.95;;;;;;;1.06;85.84766;94882.65;;;;
2021/11/21 03:53:41;;;;;;;51.59999;6.95;;;;;;;1.06;85.84766;94882.65;;;;
2021/11/21 03:54:42;;;;;;;51.59999;6.95;;;;;;;1.06;85.84766;94882.65;;;;
2021/11/21 03:55:42;;;;;;;7.4;5.200001;;;;;;;0.98;85.72656;94873.49;;;;
2021/11/21 03:56:43;;;;;;;7.4;5.200001;;;;;;;0.98;85.72656;94873.49;;;;
2021/11/21 03:57:44;;;;;;;7.4;5.200001;;;;;;;0.98;85.72656;94873.49;;;;
2021/11/21 03:58:45;;;;;;;7.4;5.200001;;;;;;;0.98;85.72656;94873.49;;;;
2021/11/21 03:59:45;;;;;;;7.4;5.200001;;;;;;;0.98;85.72656;94873.49;;;;
2021/11/21 04:00:46;;;;;;;7.4;5.200001;;;;;;;0.98;85.72656;94873.49;;;;
2021/11/21 04:01:47;;;;;;;7.4;5.200001;;;;;;;0.98;85.72656;94873.49;;;;
2021/11/21 04:02:48;;;;;;;7.4;5.200001;;;;;;;0.98;85.72656;94873.49;;;;
2021/11/21 04:03:48;;;;;;;7.4;5.200001;;;;;;;0.98;85.72656;94873.49;;;;
2021/11/21 04:04:49;;;;;;;7.4;5.200001;;;;;;;0.98;85.72656;94873.49;;;;
2021/11/21 04:05:50;;;;;;;16.65;5.95;;;;;;;0.89;85.77148;94875.03;;;;
2021/11/21 04:06:51;;;;;;;16.65;5.95;;;;;;;0.89;85.77148;94875.03;;;;
2021/11/21 04:07:51;;;;;;;16.65;5.95;;;;;;;0.89;85.77148;94875.03;;;;
2021/11/21 04:08:52;;;;;;;16.65;5.95;;;;;;;0.89;85.77148;94875.03;;;;
2021/11/21 04:09:52;;;;;;;16.65;5.95;;;;;;;0.89;85.77148;94875.03;;;;
2021/11/21 04:10:54;;;;;;;16.65;5.95;;;;;;;0.89;85.77148;94875.03;;;;
2021/11/21 04:11:54;;;;;;;16.65;5.95;;;;;;;0.89;85.77148;94875.03;;;;
2021/11/21 04:12:55;;;;;;;16.65;5.95;;;;;;;0.89;85.77148;94875.03;;;;
2021/11/21 04:13:56;;;;;;;16.65;5.95;;;;;;;0.89;85.77148;94875.03;;;;
2021/11/21 04:14:57;;;;;;;16.65;5.95;;;;;;;0.89;85.77148;94875.03;;;;
2021/11/21 04:15:58;;;;;;;16.65;5.95;;;;;;;0.89;85.77148;94875.03;;;;
2021/11/21 04:16:58;;;;;;;19.25;6.400001;;;;;;;0.7;85.76367;94863.26;;;;
2021/11/21 04:17:59;;;;;;;19.25;6.400001;;;;;;;0.7;85.76367;94863.26;;;;
2021/11/21 04:18:59;;;;;;;19.25;6.400001;;;;;;;0.7;85.76367;94863.26;;;;
2021/11/21 04:20:00;;;;;;;19.25;6.400001;;;;;;;0.7;85.76367;94863.26;;;;
2021/11/21 04:21:00;;;;;;;19.25;6.400001;;;;;;;0.7;85.76367;94863.26;;;;
2021/11/21 04:22:01;;;;;;;19.25;6.400001;;;;;;;0.7;85.76367;94863.26;;;;
2021/11/21 04:23:02;;;;;;;19.25;6.400001;;;;;;;0.7;85.76367;94863.26;;;;
2021/11/21 04:24:04;;;;;;;19.25;6.400001;;;;;;;0.7;85.76367;94863.26;;;;
2021/11/21 04:25:05;;;;;;;19.25;6.400001;;;;;;;0.7;85.76367;94863.26;;;;
2021/11/21 04:26:06;;;;;;;19.25;6.400001;;;;;;;0.7;85.76367;94863.26;;;;
2021/11/21 04:27:07;;;;;;;10.7;6.400001;;;;;;;0.57;85.97656;94868.41;;;;
2021/11/21 04:28:09;;;;;;;10.7;6.400001;;;;;;;0.57;85.97656;94868.41;;;;
2021/11/21 04:29:09;;;;;;;10.7;6.400001;;;;;;;0.57;85.97656;94868.41;;;;
2021/11/21 04:30:10;;;;;;;10.7;6.400001;;;;;;;0.57;85.97656;94868.41;;;;
2021/11/21 04:31:13;;;;;;;10.7;6.400001;;;;;;;0.57;85.97656;94868.41;;;;
2021/11/21 04:32:13;;;;;;;10.7;6.400001;;;;;;;0.57;85.97656;94868.41;;;;
2021/11/21 04:33:14;;;;;;;10.7;6.400001;;;;;;;0.57;85.97656;94868.41;;;;
2021/11/21 04:34:14;;;;;;;10.7;6.400001;;;;;;;0.57;85.97656;94868.41;;;;
2021/11/21 04:35:15;;;;;;;10.7;6.400001;;;;;;;0.57;85.97656;94868.41;;;;
2021/11/21 04:36:19;;;;;;;10.7;6.400001;;;;;;;0.57;85.97656;94868.41;;;;
2021/11/21 04:37:20;;;;;;;10.7;6.400001;;;;;;;0.57;85.97656;94868.41;;;;
2021/11/21 04:38:22;;;;;;;70.1;8.700001;;;;;;;0.6;86.32813;94859.14;;;;
2021/11/21 04:39:22;;;;;;;70.1;8.700001;;;;;;;0.6;86.32813;94859.14;;;;
2021/11/21 04:40:23;;;;;;;70.1;8.700001;;;;;;;0.6;86.32813;94859.14;;;;
2021/11/21 04:41:23;;;;;;;70.1;8.700001;;;;;;;0.6;86.32813;94859.14;;;;
2021/11/21 04:42:24;;;;;;;70.1;8.700001;;;;;;;0.6;86.32813;94859.14;;;;
2021/11/21 04:43:24;;;;;;;70.1;8.700001;;;;;;;0.6;86.32813;94859.14;;;;
2021/11/21 04:44:25;;;;;;;70.1;8.700001;;;;;;;0.6;86.32813;94859.14;;;;
2021/11/21 04:45:25;;;;;;;70.1;8.700001;;;;;;;0.6;86.32813;94859.14;;;;
2021/11/21 04:46:26;;;;;;;70.1;8.700001;;;;;;;0.6;86.32813;94859.14;;;;
2021/11/21 04:47:27;;;;;;;70.1;8.700001;;;;;;;0.6;86.32813;94859.14;;;;
2021/11/21 04:48:27;;;;;;;70.1;8.700001;;;;;;;0.6;86.32813;94859.14;;;;
2021/11/21 04:49:27;;;;;;;70.1;8.700001;;;;;;;0.6;86.32813;94859.14;;;;
2021/11/21 04:50:28;;;;;;;70.1;8.700001;;;;;;;0.6;86.32813;94859.14;;;;
2021/11/21 04:51:28;;;;;;;70.1;8.700001;;;;;;;0.6;86.32813;94859.14;;;;
2021/11/21 04:52:29;;;;;;;70.1;8.700001;;;;;;;0.6;86.32813;94859.14;;;;
2021/11/21 04:53:29;;;;;;;70.1;8.700001;;;;;;;0.6;86.32813;94859.14;;;;
2021/11/21 04:54:30;;;;;;;70.1;8.700001;;;;;;;0.6;86.32813;94859.14;;;;
2021/11/21 04:55:31;;;;;;;70.1;8.700001;;;;;;;0.6;86.32813;94859.14;;;;
2021/11/21 04:56:31;;;;;;;70.1;8.700001;;;;;;;0.6;86.32813;94859.14;;;;
2021/11/21 04:57:33;;;;;;;70.1;8.700001;;;;;;;0.6;86.32813;94859.14;;;;
2021/11/21 04:58:33;;;;;;;70.1;8.700001;;;;;;;0.6;86.32813;94859.14;;;;
2021/11/21 04:59:34;;;;;;;15.8;8.799999;;;;;;;0.95;86.41895;94839.7;;;;
2021/11/21 05:00:35;;;;;;;15.8;8.799999;;;;;;;0.95;86.41895;94839.7;;;;
2021/11/21 05:01:36;;;;;;;15.8;8.799999;;;;;;;0.95;86.41895;94839.7;;;;
2021/11/21 05:02:40;;;;;;;15.8;8.799999;;;;;;;0.95;86.41895;94839.7;;;;
2021/11/21 05:03:41;;;;;;;15.8;8.799999;;;;;;;0.95;86.41895;94839.7;;;;
2021/11/21 05:04:41;;;;;;;15.8;8.799999;;;;;;;0.95;86.41895;94839.7;;;;
2021/11/21 05:05:42;;;;;;;15.8;8.799999;;;;;;;0.95;86.41895;94839.7;;;;
2021/11/21 05:06:42;;;;;;;15.8;8.799999;;;;;;;0.95;86.41895;94839.7;;;;
2021/11/21 05:07:43;;;;;;;15.8;8.799999;;;;;;;0.95;86.41895;94839.7;;;;
2021/11/21 05:08:44;;;;;;;15.8;8.799999;;;;;;;0.95;86.41895;94839.7;;;;
2021/11/21 05:09:45;;;;;;;99.74998;10.75;;;;;;;1.13;86.26563;94834.48;;;;
2021/11/21 05:10:45;;;;;;;99.74998;10.75;;;;;;;1.13;86.26563;94834.48;;;;
2021/11/21 05:11:46;;;;;;;99.74998;10.75;;;;;;;1.13;86.26563;94834.48;;;;
2021/11/21 05:12:46;;;;;;;99.74998;10.75;;;;;;;1.13;86.26563;94834.48;;;;
2021/11/21 05:13:47;;;;;;;99.74998;10.75;;;;;;;1.13;86.26563;94834.48;;;;
2021/11/21 05:14:47;;;;;;;99.74998;10.75;;;;;;;1.13;86.26563;94834.48;;;;
2021/11/21 05:15:48;;;;;;;99.74998;10.75;;;;;;;1.13;86.26563;94834.48;;;;
2021/11/21 05:16:49;;;;;;;99.74998;10.75;;;;;;;1.13;86.26563;94834.48;;;;
2021/11/21 05:17:50;;;;;;;99.74998;10.75;;;;;;;1.13;86.26563;94834.48;;;;
2021/11/21 05:18:50;;;;;;;99.74998;10.75;;;;;;;1.13;86.26563;94834.48;;;;
2021/11/21 05:19:51;;;;;;;99.74998;10.75;;;;;;;1.13;86.26563;94834.48;;;;
2021/11/21 05:20:51;;;;;;;32.85;8.249999;;;;;;;1.16;86.28125;94824.79;;;;
2021/11/21 05:21:52;;;;;;;32.85;8.249999;;;;;;;1.16;86.28125;94824.79;;;;
2021/11/21 05:22:52;;;;;;;32.85;8.249999;;;;;;;1.16;86.28125;94824.79;;;;
2021/11/21 05:23:53;;;;;;;32.85;8.249999;;;;;;;1.16;86.28125;94824.79;;;;
2021/11/21 05:24:54;;;;;;;32.85;8.249999;;;;;;;1.16;86.28125;94824.79;;;;
2021/11/21 05:25:55;;;;;;;32.85;8.249999;;;;;;;1.16;86.28125;94824.79;;;;
2021/11/21 05:26:56;;;;;;;32.85;8.249999;;;;;;;1.16;86.28125;94824.79;;;;
2021/11/21 05:27:56;;;;;;;32.85;8.249999;;;;;;;1.16;86.28125;94824.79;;;;
2021/11/21 05:28:57;;;;;;;32.85;8.249999;;;;;;;1.16;86.28125;94824.79;;;;
2021/11/21 05:29:58;;;;;;;32.85;8.249999;;;;;;;1.16;86.28125;94824.79;;;;
2021/11/21 05:30:58;;;;;;;32.85;8.249999;;;;;;;1.16;86.28125;94824.79;;;;
2021/11/21 05:31:59;;;;;;;66.75;9.100001;;;;;;;1.23;86.47363;94823.43;;;;
2021/11/21 05:32:59;;;;;;;66.75;9.100001;;;;;;;1.23;86.47363;94823.43;;;;
2021/11/21 05:34:00;;;;;;;66.75;9.100001;;;;;;;1.23;86.47363;94823.43;;;;
2021/11/21 05:35:00;;;;;;;66.75;9.100001;;;;;;;1.23;86.47363;94823.43;;;;
2021/11/21 05:36:01;;;;;;;66.75;9.100001;;;;;;;1.23;86.47363;94823.43;;;;
2021/11/21 05:37:02;;;;;;;66.75;9.100001;;;;;;;1.23;86.47363;94823.43;;;;
2021/11/21 05:38:04;;;;;;;66.75;9.100001;;;;;;;1.23;86.47363;94823.43;;;;
2021/11/21 05:39:04;;;;;;;66.75;9.100001;;;;;;;1.23;86.47363;94823.43;;;;
2021/11/21 05:40:04;;;;;;;66.75;9.100001;;;;;;;1.23;86.47363;94823.43;;;;